createdAt,value
2017-08-18T00:00:11.634Z,19.10
2017-08-18T00:02:39.966Z,19.00
2017-08-18T00:05:08.306Z,19.10
2017-08-18T00:07:36.637Z,18.80
2017-08-18T00:10:05.754Z,18.90
2017-08-18T00:12:34.077Z,18.90
2017-08-18T00:15:02.411Z,18.40
2017-08-18T00:17:31.489Z,18.70
2017-08-18T00:19:59.820Z,18.70
2017-08-18T00:22:28.168Z,18.80
2017-08-18T00:24:56.510Z,18.80
2017-08-18T00:27:24.843Z,18.70
2017-08-18T00:29:53.151Z,18.40
2017-08-18T00:32:21.487Z,18.20
2017-08-18T00:34:50.558Z,18.50
2017-08-18T00:37:18.910Z,18.50
2017-08-18T00:39:47.241Z,18.50
2017-08-18T00:42:15.582Z,18.50
2017-08-18T00:44:43.909Z,18.60
2017-08-18T00:47:12.245Z,18.40
2017-08-18T00:49:40.555Z,18.60
2017-08-18T00:52:08.914Z,18.50
2017-08-18T00:54:38.010Z,18.40
2017-08-18T00:57:07.129Z,18.40
2017-08-18T01:02:33.949Z,18.40
2017-08-18T01:05:02.264Z,18.40
2017-08-18T01:07:30.599Z,18.30
2017-08-18T01:09:58.945Z,18.30
2017-08-18T01:12:27.274Z,18.20
2017-08-18T01:14:55.602Z,18.40
2017-08-18T01:17:23.910Z,18.30
2017-08-18T01:19:52.263Z,18.30
2017-08-18T01:22:20.581Z,18.30
2017-08-18T01:24:48.924Z,18.30
2017-08-18T01:27:17.235Z,18.30
2017-08-18T01:29:45.557Z,18.20
2017-08-18T01:32:14.639Z,18.10
2017-08-18T01:34:42.986Z,18.10
2017-08-18T01:37:11.301Z,18.10
2017-08-18T01:39:40.379Z,18.00
2017-08-18T01:42:08.720Z,18.00
2017-08-18T01:44:37.039Z,18.00
2017-08-18T01:47:05.389Z,18.00
2017-08-18T01:49:33.693Z,18.00
2017-08-18T01:52:02.029Z,17.90
2017-08-18T01:54:30.350Z,17.80
2017-08-18T01:56:59.455Z,17.90
2017-08-18T01:59:28.539Z,17.90
2017-08-18T02:01:56.890Z,17.90
2017-08-18T02:04:25.204Z,17.80
2017-08-18T02:06:53.534Z,17.80
2017-08-18T02:09:21.837Z,17.90
2017-08-18T02:11:50.151Z,17.90
2017-08-18T02:14:18.495Z,17.90
2017-08-18T02:16:46.803Z,17.80
2017-08-18T02:19:15.893Z,17.70
2017-08-18T02:21:44.193Z,17.70
2017-08-18T02:24:12.526Z,17.70
2017-08-18T02:26:40.834Z,17.60
2017-08-18T02:29:09.934Z,17.70
2017-08-18T02:31:39.021Z,17.70
2017-08-18T02:34:07.370Z,17.70
2017-08-18T02:36:35.698Z,17.70
2017-08-18T02:39:06.007Z,17.60
2017-08-18T02:41:35.113Z,17.60
2017-08-18T02:44:04.188Z,17.60
2017-08-18T02:46:32.522Z,17.60
2017-08-18T02:49:00.836Z,17.60
2017-08-18T02:51:29.170Z,17.70
2017-08-18T02:53:57.514Z,17.70
2017-08-18T02:56:26.613Z,17.40
2017-08-18T02:58:55.690Z,17.50
2017-08-18T03:01:24.028Z,17.50
2017-08-18T03:03:52.339Z,17.40
2017-08-18T03:06:20.674Z,17.40
2017-08-18T03:08:48.992Z,17.40
2017-08-18T03:11:17.299Z,17.40
2017-08-18T03:13:46.395Z,17.10
2017-08-18T03:16:14.705Z,17.00
2017-08-18T03:18:43.045Z,17.10
2017-08-18T03:21:11.358Z,17.20
2017-08-18T03:23:39.692Z,17.40
2017-08-18T03:26:08.000Z,17.30
2017-08-18T03:28:36.333Z,17.10
2017-08-18T03:31:04.634Z,17.10
2017-08-18T03:33:32.969Z,17.10
2017-08-18T03:36:01.281Z,17.30
2017-08-18T03:38:29.625Z,17.20
2017-08-18T03:40:57.938Z,17.00
2017-08-18T03:43:27.037Z,16.90
2017-08-18T03:45:57.379Z,16.80
2017-08-18T03:48:26.460Z,16.90
2017-08-18T03:50:54.791Z,16.90
2017-08-18T03:56:23.220Z,16.80
2017-08-18T03:58:51.527Z,16.80
2017-08-18T04:01:19.857Z,16.90
2017-08-18T04:03:48.172Z,16.90
2017-08-18T04:06:16.505Z,16.90
2017-08-18T04:08:44.818Z,16.90
2017-08-18T04:11:13.146Z,17.00
2017-08-18T04:13:41.457Z,16.40
2017-08-18T04:16:09.813Z,16.20
2017-08-18T04:18:38.124Z,16.10
2017-08-18T04:21:06.464Z,16.00
2017-08-18T04:23:34.772Z,16.00
2017-08-18T04:26:08.535Z,16.10
2017-08-18T04:28:36.850Z,16.20
2017-08-18T04:31:05.149Z,16.30
2017-08-18T04:33:33.478Z,16.40
2017-08-18T04:36:06.729Z,16.40
2017-08-18T04:38:35.053Z,16.10
2017-08-18T04:41:03.358Z,15.90
2017-08-18T04:43:31.687Z,16.00
2017-08-18T04:46:00.013Z,16.10
2017-08-18T04:48:28.345Z,16.10
2017-08-18T04:50:57.426Z,16.40
2017-08-18T04:53:25.761Z,16.40
2017-08-18T04:55:54.066Z,16.50
2017-08-18T04:58:22.410Z,16.60
2017-08-18T05:00:50.727Z,16.80
2017-08-18T05:03:19.036Z,17.00
2017-08-18T05:05:48.149Z,17.30
2017-08-18T05:08:16.461Z,17.30
2017-08-18T05:10:44.793Z,17.50
2017-08-18T05:13:13.870Z,17.80
2017-08-18T05:15:42.206Z,17.70
2017-08-18T05:18:10.522Z,17.70
2017-08-18T05:20:38.858Z,17.70
2017-08-18T05:23:08.086Z,17.80
2017-08-18T05:25:36.421Z,18.00
2017-08-18T05:28:04.737Z,18.00
2017-08-18T05:30:33.069Z,17.80
2017-08-18T05:33:01.374Z,17.70
2017-08-18T05:35:29.723Z,17.50
2017-08-18T05:37:58.039Z,17.40
2017-08-18T05:40:26.350Z,17.30
2017-08-18T05:42:54.698Z,17.40
2017-08-18T05:45:23.015Z,17.60
2017-08-18T05:47:51.340Z,17.80
2017-08-18T05:50:19.673Z,17.60
2017-08-18T05:52:48.015Z,17.40
2017-08-18T05:55:16.325Z,17.50
2017-08-18T05:57:44.657Z,17.70
2017-08-18T06:00:12.965Z,17.90
2017-08-18T06:02:41.331Z,18.10
2017-08-18T06:05:09.646Z,18.30
2017-08-18T06:07:38.738Z,18.80
2017-08-18T06:10:07.070Z,18.80
2017-08-18T06:12:35.373Z,19.10
2017-08-18T06:15:03.704Z,19.30
2017-08-18T06:17:32.009Z,19.30
2017-08-18T06:20:00.338Z,19.30
2017-08-18T06:22:29.522Z,19.40
2017-08-18T06:24:57.881Z,19.40
2017-08-18T06:27:26.193Z,19.50
2017-08-18T06:29:55.295Z,19.90
2017-08-18T06:32:24.360Z,19.90
2017-08-18T06:34:52.694Z,19.90
2017-08-18T06:37:21.014Z,19.80
2017-08-18T06:39:49.350Z,19.90
2017-08-18T06:42:17.661Z,20.10
2017-08-18T06:44:45.967Z,20.20
2017-08-18T06:47:14.293Z,20.50
2017-08-18T06:49:42.613Z,20.80
2017-08-18T06:52:10.955Z,20.90
2017-08-18T06:54:39.268Z,21.20
2017-08-18T06:57:07.603Z,21.30
2017-08-18T06:59:35.928Z,21.40
2017-08-18T07:02:04.273Z,21.60
2017-08-18T07:04:32.588Z,21.70
2017-08-18T07:07:00.919Z,21.70
2017-08-18T07:09:29.225Z,21.90
2017-08-18T07:11:57.565Z,22.10
2017-08-18T07:14:45.201Z,22.10
2017-08-18T07:17:13.540Z,22.40
2017-08-18T07:19:41.845Z,22.60
2017-08-18T07:22:10.950Z,22.60
2017-08-18T07:24:39.255Z,22.60
2017-08-18T07:27:07.559Z,22.40
2017-08-18T07:29:35.893Z,22.50
2017-08-18T07:32:04.220Z,22.40
2017-08-18T07:34:32.538Z,22.40
2017-08-18T07:37:00.883Z,22.50
2017-08-18T07:39:29.181Z,22.60
2017-08-18T07:41:58.286Z,22.60
2017-08-18T07:44:26.594Z,22.60
2017-08-18T07:46:54.907Z,22.70
2017-08-18T07:49:23.238Z,22.80
2017-08-18T07:51:51.557Z,22.90
2017-08-18T07:54:19.895Z,23.10
2017-08-18T07:56:48.206Z,23.10
2017-08-18T07:59:16.547Z,23.20
2017-08-18T08:01:44.849Z,23.10
2017-08-18T08:04:13.198Z,23.20
2017-08-18T08:06:41.506Z,23.20
2017-08-18T08:09:09.819Z,23.20
2017-08-18T08:11:38.142Z,23.30
2017-08-18T08:14:06.452Z,23.20
2017-08-18T08:16:34.782Z,23.20
2017-08-18T08:19:03.098Z,23.10
2017-08-18T08:21:31.429Z,23.10
2017-08-18T08:24:00.503Z,23.10
2017-08-18T08:26:28.829Z,23.20
2017-08-18T08:28:57.138Z,23.20
2017-08-18T08:31:25.477Z,23.30
2017-08-18T08:33:53.803Z,23.30
2017-08-18T08:36:22.113Z,23.30
2017-08-18T08:38:51.222Z,23.40
2017-08-18T08:41:19.534Z,23.40
2017-08-18T08:43:47.862Z,23.40
2017-08-18T08:46:16.938Z,23.50
2017-08-18T08:48:45.270Z,23.50
2017-08-18T08:51:13.577Z,23.70
2017-08-18T08:53:41.927Z,23.80
2017-08-18T08:56:10.230Z,23.90
2017-08-18T08:58:38.533Z,23.90
2017-08-18T09:01:06.867Z,23.90
2017-08-18T09:03:35.185Z,24.10
2017-08-18T09:06:03.515Z,24.00
2017-08-18T09:08:31.824Z,24.10
2017-08-18T09:11:00.190Z,24.30
2017-08-18T09:13:28.497Z,24.60
2017-08-18T09:15:56.838Z,24.90
2017-08-18T09:18:25.145Z,24.80
2017-08-18T09:20:53.450Z,25.00
2017-08-18T09:23:21.782Z,25.30
2017-08-18T09:25:50.082Z,25.50
2017-08-18T09:28:18.418Z,25.50
2017-08-18T09:30:46.718Z,25.70
2017-08-18T09:33:15.041Z,25.70
2017-08-18T09:35:43.380Z,25.90
2017-08-18T09:38:11.709Z,26.00
2017-08-18T09:40:40.018Z,26.10
2017-08-18T09:43:08.358Z,26.10
2017-08-18T09:45:36.657Z,25.90
2017-08-18T09:48:16.749Z,25.90
2017-08-18T09:53:56.654Z,25.80
2017-08-18T09:56:36.867Z,25.80
2017-08-18T09:59:17.289Z,25.80
2017-08-18T10:01:45.354Z,25.70
2017-08-18T10:04:13.468Z,25.90
2017-08-18T10:06:48.897Z,26.20
2017-08-18T10:09:16.965Z,26.20
2017-08-18T10:11:45.068Z,26.30
2017-08-18T10:14:13.909Z,26.50
2017-08-18T10:16:42.002Z,26.50
2017-08-18T10:19:10.845Z,26.70
2017-08-18T10:21:38.930Z,26.60
2017-08-18T10:24:06.994Z,26.70
2017-08-18T10:26:35.086Z,26.80
2017-08-18T10:29:03.142Z,26.60
2017-08-18T10:31:31.226Z,26.60
2017-08-18T10:33:59.321Z,26.60
2017-08-18T10:36:27.385Z,26.60
2017-08-18T10:38:55.468Z,26.70
2017-08-18T10:41:23.556Z,26.90
2017-08-18T10:43:51.630Z,27.00
2017-08-18T10:46:20.477Z,27.10
2017-08-18T10:48:48.555Z,27.10
2017-08-18T10:51:16.640Z,27.10
2017-08-18T10:53:44.705Z,27.10
2017-08-18T10:56:12.814Z,27.20
2017-08-18T10:58:41.642Z,27.40
2017-08-18T11:01:09.709Z,27.40
2017-08-18T11:03:37.801Z,27.50
2017-08-18T11:06:05.856Z,27.70
2017-08-18T11:08:33.944Z,27.90
2017-08-18T11:11:02.015Z,28.20
2017-08-18T11:13:30.112Z,28.30
2017-08-18T11:15:58.182Z,28.30
2017-08-18T11:18:26.275Z,28.40
2017-08-18T11:20:54.336Z,28.30
2017-08-18T11:23:22.441Z,28.30
2017-08-18T11:25:51.277Z,28.80
2017-08-18T11:28:19.397Z,28.70
2017-08-18T11:30:48.238Z,29.00
2017-08-18T11:33:16.335Z,29.00
2017-08-18T11:35:44.403Z,28.90
2017-08-18T11:38:12.503Z,29.10
2017-08-18T11:40:40.603Z,29.10
2017-08-18T11:46:06.285Z,29.30
2017-08-18T11:48:34.389Z,29.50
2017-08-18T11:51:02.465Z,29.60
2017-08-18T11:53:30.557Z,29.60
2017-08-18T11:55:58.632Z,29.30
2017-08-18T11:58:26.734Z,29.20
2017-08-18T12:00:54.801Z,29.30
2017-08-18T12:03:22.866Z,29.50
2017-08-18T12:05:50.957Z,29.50
2017-08-18T12:08:19.041Z,29.50
2017-08-18T12:10:47.143Z,29.60
2017-08-18T12:13:15.219Z,29.70
2017-08-18T12:15:43.322Z,29.80
2017-08-18T12:18:11.399Z,30.00
2017-08-18T12:20:39.494Z,30.10
2017-08-18T12:23:07.566Z,30.10
2017-08-18T12:25:35.653Z,30.10
2017-08-18T12:28:03.727Z,30.10
2017-08-18T12:30:31.809Z,30.10
2017-08-18T12:33:00.635Z,30.30
2017-08-18T12:35:28.718Z,30.30
2017-08-18T12:37:56.800Z,30.20
2017-08-18T12:40:24.896Z,30.30
2017-08-18T12:42:52.970Z,30.40
2017-08-18T12:45:21.053Z,30.60
2017-08-18T12:47:49.947Z,30.50
2017-08-18T12:50:18.043Z,30.50
2017-08-18T12:52:46.151Z,30.60
2017-08-18T12:55:14.205Z,30.40
2017-08-18T12:57:42.297Z,30.50
2017-08-18T13:00:10.375Z,30.50
2017-08-18T13:02:38.480Z,30.00
2017-08-18T13:05:06.547Z,29.50
2017-08-18T13:07:34.634Z,29.50
2017-08-18T13:10:02.708Z,29.30
2017-08-18T13:12:31.573Z,29.40
2017-08-18T13:14:59.650Z,29.40
2017-08-18T13:17:27.726Z,29.40
2017-08-18T13:19:55.828Z,29.50
2017-08-18T13:22:23.897Z,29.60
2017-08-18T13:24:51.997Z,29.60
2017-08-18T13:27:20.074Z,29.60
2017-08-18T13:29:48.166Z,29.30
2017-08-18T13:32:16.241Z,29.30
2017-08-18T13:34:44.331Z,29.30
2017-08-18T13:37:12.404Z,29.40
2017-08-18T13:39:40.510Z,29.40
2017-08-18T13:42:08.607Z,29.30
2017-08-18T13:44:36.689Z,29.50
2017-08-18T13:47:04.773Z,29.60
2017-08-18T13:49:32.856Z,29.70
2017-08-18T13:52:00.948Z,29.50
2017-08-18T13:54:29.031Z,29.60
2017-08-18T13:56:57.141Z,29.60
2017-08-18T13:59:25.212Z,29.30
2017-08-18T14:01:53.317Z,29.00
2017-08-18T14:04:21.402Z,28.90
2017-08-18T14:06:49.517Z,29.20
2017-08-18T14:09:17.593Z,29.40
2017-08-18T14:11:45.689Z,29.50
2017-08-18T14:14:13.766Z,29.40
2017-08-18T14:16:41.873Z,28.90
2017-08-18T14:19:09.937Z,29.00
2017-08-18T14:21:38.008Z,29.00
2017-08-18T14:24:06.093Z,29.00
2017-08-18T14:26:40.012Z,28.90
2017-08-18T14:29:08.337Z,28.80
2017-08-18T14:31:36.666Z,28.80
2017-08-18T14:34:05.002Z,28.70
2017-08-18T14:36:33.318Z,28.80
2017-08-18T14:39:06.779Z,28.90
2017-08-18T14:41:35.099Z,28.90
2017-08-18T14:44:03.429Z,29.00
2017-08-18T14:46:32.509Z,28.80
2017-08-18T14:49:00.857Z,28.80
2017-08-18T14:51:29.166Z,28.70
2017-08-18T14:53:57.483Z,28.80
2017-08-18T14:56:25.829Z,28.80
2017-08-18T14:58:54.141Z,28.70
2017-08-18T15:01:22.494Z,28.50
2017-08-18T15:03:50.806Z,28.60
2017-08-18T15:06:19.138Z,28.70
2017-08-18T15:08:47.453Z,28.50
2017-08-18T15:11:17.754Z,28.50
2017-08-18T15:13:46.065Z,28.40
2017-08-18T15:16:14.394Z,28.30
2017-08-18T15:18:42.712Z,28.20
2017-08-18T15:21:11.054Z,28.10
2017-08-18T15:23:39.348Z,28.10
2017-08-18T15:26:08.457Z,28.00
2017-08-18T15:28:36.770Z,28.00
2017-08-18T15:31:05.074Z,28.00
2017-08-18T15:33:33.410Z,28.10
2017-08-18T15:36:04.905Z,28.10
2017-08-18T15:38:33.238Z,28.00
2017-08-18T15:41:01.544Z,27.90
2017-08-18T15:43:33.018Z,27.90
2017-08-18T15:46:01.326Z,27.50
2017-08-18T15:48:29.667Z,27.60
2017-08-18T15:50:57.983Z,27.60
2017-08-18T15:53:29.618Z,27.20
2017-08-18T15:55:57.930Z,27.00
2017-08-18T15:58:26.275Z,27.00
2017-08-18T16:00:55.352Z,26.90
2017-08-18T16:03:23.664Z,26.90
2017-08-18T16:05:52.766Z,26.90
2017-08-18T16:08:21.074Z,26.90
2017-08-18T16:10:49.413Z,26.70
2017-08-18T16:13:18.512Z,25.90
2017-08-18T16:15:46.874Z,25.80
2017-08-18T16:18:15.194Z,24.40
2017-08-18T16:20:43.533Z,23.90
2017-08-18T16:23:12.625Z,23.10
2017-08-18T16:25:41.733Z,23.10
2017-08-18T16:28:10.038Z,23.10
2017-08-18T16:30:38.375Z,23.10
2017-08-18T16:33:06.697Z,23.00
2017-08-18T16:35:35.054Z,22.90
2017-08-18T16:38:03.369Z,22.40
2017-08-18T16:40:31.717Z,22.20
2017-08-18T16:43:00.038Z,22.10
2017-08-18T16:45:28.350Z,22.20
2017-08-18T16:47:58.476Z,22.20
2017-08-18T16:50:26.785Z,22.20
2017-08-18T16:52:55.151Z,22.10
2017-08-18T16:55:23.480Z,21.80
2017-08-18T16:57:51.817Z,22.00
2017-08-18T17:00:20.234Z,22.00
2017-08-18T17:02:48.702Z,21.90
2017-08-18T17:05:17.017Z,21.80
2017-08-18T17:07:45.361Z,21.70
2017-08-18T17:10:13.716Z,21.80
2017-08-18T17:12:42.067Z,21.80
2017-08-18T17:15:11.318Z,21.50
2017-08-18T17:17:39.637Z,21.40
2017-08-18T17:20:11.514Z,21.40
2017-08-18T17:22:39.829Z,21.40
2017-08-18T17:25:08.162Z,21.30
2017-08-18T17:27:36.523Z,21.20
2017-08-18T17:30:04.935Z,20.80
2017-08-18T17:32:34.006Z,20.60
2017-08-18T17:35:06.396Z,20.50
2017-08-18T17:37:34.709Z,20.70
2017-08-18T17:40:03.047Z,20.70
2017-08-18T17:42:32.129Z,20.70
2017-08-18T17:45:00.432Z,20.70
2017-08-18T17:47:28.793Z,20.50
2017-08-18T17:49:57.110Z,20.50
2017-08-18T17:52:25.442Z,20.40
2017-08-18T17:54:53.767Z,20.30
2017-08-18T17:57:22.111Z,20.40
2017-08-18T17:59:51.197Z,20.40
2017-08-18T18:02:19.538Z,20.40
2017-08-18T18:04:50.918Z,20.40
2017-08-18T18:07:19.262Z,20.30
2017-08-18T18:09:47.576Z,20.30
2017-08-18T18:12:15.927Z,20.30
2017-08-18T18:14:44.229Z,20.40
2017-08-18T18:17:16.327Z,20.40
2017-08-18T18:19:45.411Z,20.40
2017-08-18T18:22:15.542Z,20.40
2017-08-18T18:24:49.614Z,20.40
2017-08-18T18:27:17.950Z,20.40
2017-08-18T18:29:48.423Z,20.30
2017-08-18T18:32:16.742Z,20.20
2017-08-18T18:34:45.846Z,20.20
2017-08-18T18:37:14.423Z,20.20
2017-08-18T18:39:43.619Z,20.10
2017-08-18T18:42:11.930Z,20.10
2017-08-18T18:44:40.279Z,20.10
2017-08-18T18:47:09.542Z,19.90
2017-08-18T18:49:37.902Z,20.00
2017-08-18T18:52:07.221Z,20.00
2017-08-18T18:54:35.571Z,20.00
2017-08-18T18:57:03.883Z,20.10
2017-08-18T18:59:32.194Z,20.10
2017-08-18T19:02:00.527Z,19.90
2017-08-18T19:04:28.842Z,19.80
2017-08-18T19:06:58.957Z,19.40
2017-08-18T19:09:28.037Z,19.40
2017-08-18T19:11:56.370Z,19.40
2017-08-18T19:14:24.677Z,19.30
2017-08-18T19:16:53.014Z,19.10
2017-08-18T19:19:21.331Z,19.00
2017-08-18T19:21:49.669Z,18.80
2017-08-18T19:24:17.983Z,18.70
2017-08-18T19:26:46.338Z,18.80
2017-08-18T19:29:14.653Z,18.70
2017-08-18T19:34:42.709Z,18.60
2017-08-18T19:37:11.057Z,18.60
2017-08-18T19:39:40.341Z,18.60
2017-08-18T19:42:08.667Z,18.60
2017-08-18T19:44:37.011Z,18.60
2017-08-18T19:47:05.322Z,18.40
2017-08-18T19:49:33.656Z,18.40
2017-08-18T19:52:01.973Z,18.30
2017-08-18T19:54:30.304Z,18.40
2017-08-18T19:56:58.620Z,18.30
2017-08-18T19:59:26.978Z,18.30
2017-08-18T20:01:55.289Z,18.10
2017-08-18T20:04:23.646Z,18.10
2017-08-18T20:06:52.730Z,18.20
2017-08-18T20:09:21.079Z,18.20
2017-08-18T20:11:49.391Z,18.20
2017-08-18T20:14:18.476Z,18.20
2017-08-18T20:16:46.812Z,18.10
2017-08-18T20:19:15.140Z,18.20
2017-08-18T20:21:43.478Z,18.20
2017-08-18T20:24:11.790Z,18.20
2017-08-18T20:26:40.122Z,18.10
2017-08-18T20:29:08.438Z,18.00
2017-08-18T20:31:42.173Z,18.00
2017-08-18T20:34:11.249Z,18.00
2017-08-18T20:36:39.588Z,18.00
2017-08-18T20:39:07.892Z,18.00
2017-08-18T20:41:36.237Z,18.00
2017-08-18T20:44:04.561Z,17.90
2017-08-18T20:46:32.880Z,17.80
2017-08-18T20:49:01.217Z,17.70
2017-08-18T20:51:29.537Z,17.60
2017-08-18T20:53:57.882Z,17.60
2017-08-18T20:56:26.198Z,17.60
2017-08-18T20:58:54.707Z,17.60
2017-08-18T21:01:23.027Z,17.60
2017-08-18T21:03:51.441Z,17.60
2017-08-18T21:06:19.774Z,17.70
2017-08-18T21:08:48.115Z,17.70
2017-08-18T21:11:16.417Z,17.60
2017-08-18T21:13:44.729Z,17.60
2017-08-18T21:16:13.836Z,17.30
2017-08-18T21:18:42.151Z,17.30
2017-08-18T21:21:10.492Z,17.30
2017-08-18T21:23:39.586Z,17.30
2017-08-18T21:26:10.623Z,17.30
2017-08-18T21:28:39.703Z,17.30
2017-08-18T21:31:09.014Z,17.20
2017-08-18T21:33:43.109Z,17.20
2017-08-18T21:36:12.229Z,17.20
2017-08-18T21:38:41.307Z,17.30
2017-08-18T21:41:10.403Z,17.40
2017-08-18T21:43:38.738Z,17.40
2017-08-18T21:46:07.051Z,17.40
2017-08-18T21:48:35.390Z,17.30
2017-08-18T21:51:03.706Z,17.30
2017-08-18T21:53:32.037Z,17.30
2017-08-18T21:56:03.537Z,17.30
2017-08-18T21:58:31.870Z,17.30
2017-08-18T22:01:00.187Z,17.30
2017-08-18T22:03:28.540Z,17.30
2017-08-18T22:05:56.854Z,17.20
2017-08-18T22:08:26.200Z,17.20
2017-08-18T22:10:54.516Z,17.10
2017-08-18T22:13:22.857Z,17.30
2017-08-18T22:15:51.221Z,17.30
2017-08-18T22:18:19.545Z,17.30
2017-08-18T22:20:47.877Z,17.40
2017-08-18T22:23:16.966Z,17.40
2017-08-18T22:25:46.079Z,17.40
2017-08-18T22:28:14.388Z,17.40
2017-08-18T22:30:42.736Z,17.40
2017-08-18T22:33:11.055Z,17.40
2017-08-18T22:35:39.402Z,17.40
2017-08-18T22:38:07.716Z,17.50
2017-08-18T22:40:36.043Z,17.50
2017-08-18T22:43:05.141Z,17.50
2017-08-18T22:45:33.468Z,17.50
2017-08-18T22:48:01.800Z,17.60
2017-08-18T22:50:30.118Z,17.50
2017-08-18T22:52:58.452Z,17.60
2017-08-18T22:55:50.825Z,17.50
2017-08-18T22:58:19.161Z,17.50
2017-08-18T23:00:47.483Z,17.40
2017-08-18T23:03:15.826Z,17.50
2017-08-18T23:05:44.150Z,17.60
2017-08-18T23:08:12.501Z,17.40
2017-08-18T23:10:40.819Z,17.40
2017-08-18T23:16:04.806Z,17.40
2017-08-18T23:18:33.135Z,17.40
2017-08-18T23:21:01.474Z,17.20
2017-08-18T23:23:29.782Z,17.30
2017-08-18T23:25:58.890Z,17.30
2017-08-18T23:28:27.213Z,17.30
2017-08-18T23:30:55.558Z,17.40
2017-08-18T23:33:24.641Z,17.40
2017-08-18T23:35:53.716Z,17.40
2017-08-18T23:38:22.054Z,17.40
2017-08-18T23:40:50.374Z,17.40
2017-08-18T23:43:18.701Z,17.30
2017-08-18T23:45:47.009Z,17.30
2017-08-18T23:48:15.353Z,17.30
2017-08-18T23:50:43.667Z,17.30
2017-08-18T23:53:12.011Z,17.20
2017-08-18T23:55:40.327Z,17.20
2017-08-18T23:58:08.652Z,17.20
